Luverne, Alabama
Current Conditions -  °F | °C
As of 6:53 AM on Thursday 30 Oct 2014 (Local Time) from KTOI Reporting Station
Clear Clear  
Wind Chill: 51°   Ceiling: Unl
Heat Index: 51°   Visibility: 10mi
Dew Point: 48°   Wind: 5mph
Humidity: 89%   Direction: 360°N
Pressure: 30.08"   Gusts: NA
Location:  31.72°N, 86.26°W
Report Text: KTOI 301153Z AUTO 36004KT 10SM CLR 11/09 A3008 RMK AO2 SLP184 70009 T01060089 10150 20106 53007
Loading
Personal Weather Stations






























Interactive Weather Map New forecast layout! Learn more

10-Day Weather Forecast

Advertisements
Track Severe Weather on mobile